Time;durP1;ratioP1;P1;durP2;ratioP2;P2;SDS_P1;SDS_P2;PMS_P1;PMS_P2;Temp;Humidity;BMP_temperature;BMP_pressure;BME280_temperature;BME280_humidity;BME280_pressure;Samples;Min_cycle;Max_cycle;Signal;HPM_P1;HPM_P2
2022/12/20 00:00:18;;;;;;;14.90;12.00;;;;;;;;;;104786;1305;22583;-34
2022/12/20 00:03:12;;;;;;;14.40;11.90;;;;;;;;;;104839;1321;23323;-35
2022/12/20 00:05:46;;;;;;;13.90;11.70;;;;;;;;;;104820;1316;22561;-35
2022/12/20 00:08:19;;;;;;;14.80;12.30;;;;;;;;;;104665;1302;22539;-35
2022/12/20 00:10:56;;;;;;;14.40;11.60;;;;;;;;;;104806;1317;22708;-35
2022/12/20 00:13:30;;;;;;;16.50;12.70;;;;;;;;;;104779;1308;22554;-33
2022/12/20 00:16:11;;;;;;;15.00;12.00;;;;;;;;;;104774;1320;22551;-34
2022/12/20 00:18:45;;;;;;;13.90;11.90;;;;;;;;;;104785;1321;22544;-34
2022/12/20 00:21:19;;;;;;;15.40;12.10;;;;;;;;;;104828;1320;24870;-34
2022/12/20 00:23:54;;;;;;;13.90;11.50;;;;;;;;;;104851;1312;22674;-34
2022/12/20 00:26:30;;;;;;;13.10;11.10;;;;;;;;;;104778;1316;22543;-33
2022/12/20 00:29:05;;;;;;;14.70;11.70;;;;;;;;;;104800;1309;24851;-32
2022/12/20 00:31:39;;;;;;;15.80;11.60;;;;;;;;;;104794;1311;24783;-34
2022/12/20 00:34:13;;;;;;;15.40;12.40;;;;;;;;;;104792;1316;22550;-34
2022/12/20 00:36:51;;;;;;;13.80;10.90;;;;;;;;;;104768;1316;22632;-34
2022/12/20 00:39:25;;;;;;;15.90;12.00;;;;;;;;;;104865;1316;22534;-33
2022/12/20 00:41:59;;;;;;;14.70;11.80;;;;;;;;;;104845;1317;22544;-34
2022/12/20 00:44:33;;;;;;;13.90;11.80;;;;;;;;;;104850;1316;25256;-32
2022/12/20 00:47:07;;;;;;;14.30;11.70;;;;;;;;;;104769;1322;24888;-32
2022/12/20 00:49:41;;;;;;;14.10;11.40;;;;;;;;;;104788;1316;25304;-33
2022/12/20 00:52:14;;;;;;;14.20;11.80;;;;;;;;;;104649;1319;25365;-35
2022/12/20 00:54:48;;;;;;;13.60;10.80;;;;;;;;;;104792;1323;22540;-35
2022/12/20 00:57:22;;;;;;;14.20;11.30;;;;;;;;;;104781;1312;22595;-35
2022/12/20 00:59:55;;;;;;;13.60;10.90;;;;;;;;;;104858;1317;25456;-35
2022/12/20 01:02:27;;;;;;;;;;;;;;;;;;104855;1322;22526;-35
2022/12/20 01:05:02;;;;;;;14.70;12.10;;;;;;;;;;104846;1302;22589;-33
2022/12/20 01:07:34;;;;;;;;;;;;;;;;;;104781;1317;22536;-33
2022/12/20 01:10:10;;;;;;;13.90;11.10;;;;;;;;;;104799;1310;22550;-34
2022/12/20 01:12:44;;;;;;;12.70;10.10;;;;;;;;;;104837;1317;22572;-34
2022/12/20 01:15:20;;;;;;;13.30;10.30;;;;;;;;;;104779;1316;22541;-34
2022/12/20 01:17:54;;;;;;;13.50;11.00;;;;;;;;;;104819;1316;25507;-33
2022/12/20 01:20:28;;;;;;;13.20;10.30;;;;;;;;;;104875;1319;22553;-34
2022/12/20 01:23:01;;;;;;;13.10;10.10;;;;;;;;;;104847;1309;25371;-35
2022/12/20 01:25:35;;;;;;;14.20;10.60;;;;;;;;;;104852;1317;22548;-34
2022/12/20 01:28:09;;;;;;;13.50;11.00;;;;;;;;;;104764;1319;22572;-33
2022/12/20 01:30:45;;;;;;;13.40;10.80;;;;;;;;;;104676;1321;23706;-35
2022/12/20 01:33:19;;;;;;;13.70;10.50;;;;;;;;;;104665;1319;22572;-34
2022/12/20 01:36:01;;;;;;;13.80;10.40;;;;;;;;;;104650;1309;22592;-34
2022/12/20 01:38:36;;;;;;;13.30;9.90;;;;;;;;;;104751;1308;25193;-35
2022/12/20 01:41:11;;;;;;;12.10;9.50;;;;;;;;;;104838;1317;22577;-34
2022/12/20 01:43:54;;;;;;;13.40;10.10;;;;;;;;;;104851;1316;22548;-34
2022/12/20 01:46:29;;;;;;;13.50;10.30;;;;;;;;;;104676;1321;22665;-34
2022/12/20 01:49:09;;;;;;;12.90;9.90;;;;;;;;;;104653;1316;22545;-34
2022/12/20 01:51:47;;;;;;;12.50;9.90;;;;;;;;;;104666;1316;22538;-34
2022/12/20 01:54:25;;;;;;;13.00;10.10;;;;;;;;;;104689;1317;22567;-35
2022/12/20 01:57:02;;;;;;;12.40;9.30;;;;;;;;;;104678;1319;22573;-34
2022/12/20 01:59:41;;;;;;;12.00;9.40;;;;;;;;;;104765;1317;22659;-34
2022/12/20 02:02:16;;;;;;;12.60;9.90;;;;;;;;;;104816;1317;22540;-34
2022/12/20 02:04:50;;;;;;;12.10;9.50;;;;;;;;;;104792;1317;22550;-34
2022/12/20 02:07:28;;;;;;;13.80;10.00;;;;;;;;;;104829;1316;22537;-34
2022/12/20 02:10:04;;;;;;;12.40;9.10;;;;;;;;;;104614;1317;22537;-34
2022/12/20 02:12:42;;;;;;;12.40;9.40;;;;;;;;;;104633;1318;24789;-34
2022/12/20 02:15:32;;;;;;;11.50;8.70;;;;;;;;;;104667;1310;22545;-35
2022/12/20 02:18:19;;;;;;;12.10;9.60;;;;;;;;;;104619;1311;22546;-35
2022/12/20 02:21:19;;;;;;;11.60;8.40;;;;;;;;;;104827;1321;22564;-35
2022/12/20 02:24:19;;;;;;;12.20;9.30;;;;;;;;;;104831;1317;22544;-35
2022/12/20 02:27:42;;;;;;;13.70;9.60;;;;;;;;;;104821;1316;22555;-35
2022/12/20 02:30:20;;;;;;;11.80;9.30;;;;;;;;;;104613;1323;23386;-35
2022/12/20 02:33:00;;;;;;;11.20;8.80;;;;;;;;;;104658;1325;22557;-35
2022/12/20 02:35:37;;;;;;;12.90;9.80;;;;;;;;;;104668;1325;23619;-35
2022/12/20 02:38:30;;;;;;;12.00;8.80;;;;;;;;;;104691;1310;22551;-35
2022/12/20 02:41:12;;;;;;;12.30;8.70;;;;;;;;;;104799;1310;25217;-35
2022/12/20 02:46:43;;;;;;;12.00;8.80;;;;;;;;;;104819;1316;22544;-35
2022/12/20 02:49:21;;;;;;;12.70;9.30;;;;;;;;;;104768;1317;22577;-35
2022/12/20 02:51:56;;;;;;;11.80;8.80;;;;;;;;;;104679;1317;22537;-35
2022/12/20 02:54:31;;;;;;;11.50;8.50;;;;;;;;;;104670;1311;22545;-35
2022/12/20 02:57:13;;;;;;;10.60;8.50;;;;;;;;;;104655;1324;22571;-35
2022/12/20 02:59:57;;;;;;;10.90;8.70;;;;;;;;;;104665;1315;23902;-34
2022/12/20 03:03:21;;;;;;;11.20;8.40;;;;;;;;;;104855;1318;23863;-35
2022/12/20 03:05:28;;;;;;;11.30;8.50;;;;;;;;;;104840;1320;25360;-35
2022/12/20 03:08:02;;;;;;;12.80;8.70;;;;;;;;;;104827;1322;22543;-35
2022/12/20 03:10:36;;;;;;;11.80;8.60;;;;;;;;;;104666;1321;22549;-35
2022/12/20 03:13:10;;;;;;;10.50;8.50;;;;;;;;;;104658;1324;23051;-35
2022/12/20 03:15:43;;;;;;;10.40;8.30;;;;;;;;;;104630;1317;22544;-35
2022/12/20 03:18:17;;;;;;;12.00;9.40;;;;;;;;;;104653;1310;22556;-35
2022/12/20 03:20:51;;;;;;;10.40;8.10;;;;;;;;;;104687;1324;25366;-35
2022/12/20 03:23:25;;;;;;;10.30;8.30;;;;;;;;;;104847;1321;24143;-33
2022/12/20 03:25:59;;;;;;;10.50;8.10;;;;;;;;;;104836;1316;22573;-34
2022/12/20 03:28:33;;;;;;;10.90;8.00;;;;;;;;;;104829;1324;22567;-34
2022/12/20 03:31:07;;;;;;;12.40;8.60;;;;;;;;;;104702;1316;22551;-34
2022/12/20 03:33:41;;;;;;;10.20;8.40;;;;;;;;;;104638;1303;22537;-34
2022/12/20 03:36:13;;;;;;;;;;;;;;;;;;104666;1319;22525;-34
2022/12/20 03:38:47;;;;;;;9.90;7.80;;;;;;;;;;104655;1316;22544;-34
2022/12/20 03:41:20;;;;;;;;;;;;;;;;;;104704;1321;25526;-35
2022/12/20 03:43:54;;;;;;;11.30;8.40;;;;;;;;;;104833;1321;24346;-34
2022/12/20 03:46:28;;;;;;;10.00;8.00;;;;;;;;;;104816;1304;23863;-34
2022/12/20 03:49:02;;;;;;;11.20;8.10;;;;;;;;;;104846;1321;22554;-34
2022/12/20 03:51:35;;;;;;;10.40;8.40;;;;;;;;;;104706;1317;22541;-34
2022/12/20 03:54:09;;;;;;;10.80;7.90;;;;;;;;;;104650;1310;24826;-35
2022/12/20 03:56:43;;;;;;;10.20;7.50;;;;;;;;;;104665;1319;22540;-35
2022/12/20 03:59:18;;;;;;;10.80;8.30;;;;;;;;;;104643;1321;25293;-34
2022/12/20 04:01:51;;;;;;;10.50;7.80;;;;;;;;;;104731;1310;22537;-34
2022/12/20 04:04:26;;;;;;;10.00;7.50;;;;;;;;;;104816;1324;24899;-33
2022/12/20 04:07:01;;;;;;;10.20;8.00;;;;;;;;;;104801;1320;22552;-34
2022/12/20 04:09:35;;;;;;;10.10;8.00;;;;;;;;;;104838;1322;22602;-34
2022/12/20 04:12:09;;;;;;;10.50;7.70;;;;;;;;;;104664;1311;22541;-34
2022/12/20 04:14:43;;;;;;;11.10;8.10;;;;;;;;;;104640;1322;22591;-34
2022/12/20 04:17:17;;;;;;;10.40;7.70;;;;;;;;;;104655;1325;22572;-34
2022/12/20 04:19:53;;;;;;;10.60;8.30;;;;;;;;;;104655;1322;22556;-34
2022/12/20 04:22:27;;;;;;;10.80;7.60;;;;;;;;;;104739;1317;25452;-34
2022/12/20 04:25:01;;;;;;;10.30;7.60;;;;;;;;;;104822;1316;23012;-34
2022/12/20 04:27:35;;;;;;;9.30;7.50;;;;;;;;;;104814;1323;22554;-34
2022/12/20 04:30:12;;;;;;;9.80;7.40;;;;;;;;;;104840;1324;22535;-34
2022/12/20 04:32:45;;;;;;;9.50;7.50;;;;;;;;;;104684;1316;24152;-34
2022/12/20 04:35:19;;;;;;;9.50;7.00;;;;;;;;;;104679;1316;24153;-34
2022/12/20 04:37:53;;;;;;;9.60;7.70;;;;;;;;;;104642;1317;25845;-34
2022/12/20 04:40:27;;;;;;;9.10;7.10;;;;;;;;;;104659;1317;22558;-33
2022/12/20 04:43:00;;;;;;;10.20;7.40;;;;;;;;;;104746;1317;22652;-34
2022/12/20 04:45:34;;;;;;;9.60;7.20;;;;;;;;;;104826;1301;23001;-34
2022/12/20 04:48:09;;;;;;;10.60;7.50;;;;;;;;;;104815;1324;22562;-34
2022/12/20 04:51:03;;;;;;;8.80;6.60;;;;;;;;;;104822;1322;22601;-34
2022/12/20 04:53:48;;;;;;;9.70;7.20;;;;;;;;;;104621;1309;22550;-35
2022/12/20 04:56:26;;;;;;;10.30;7.40;;;;;;;;;;104656;1307;22544;-34
2022/12/20 04:59:01;;;;;;;10.10;7.30;;;;;;;;;;104644;1306;22571;-34
2022/12/20 05:01:35;;;;;;;10.00;7.40;;;;;;;;;;104616;1309;22562;-35
2022/12/20 05:04:09;;;;;;;8.90;6.80;;;;;;;;;;104807;1311;22550;-34
2022/12/20 05:06:43;;;;;;;9.60;7.60;;;;;;;;;;104837;1310;22556;-34
2022/12/20 05:09:17;;;;;;;9.70;7.30;;;;;;;;;;104840;1321;22541;-35
2022/12/20 05:11:51;;;;;;;9.40;7.20;;;;;;;;;;104790;1316;22550;-34
2022/12/20 05:14:25;;;;;;;9.80;7.50;;;;;;;;;;104654;1303;22573;-35
2022/12/20 05:16:59;;;;;;;9.50;6.80;;;;;;;;;;104461;1325;22550;-34
2022/12/20 05:19:33;;;;;;;9.80;7.50;;;;;;;;;;104675;1311;22572;-34
2022/12/20 05:27:49;;;;;;;9.00;6.90;;;;;;;;;;104833;1321;23263;-34
2022/12/20 05:30:21;;;;;;;;;;;;;;;;;;104835;1310;22526;-35
2022/12/20 05:32:56;;;;;;;9.00;7.00;;;;;;;;;;104783;1315;22587;-35
2022/12/20 05:35:30;;;;;;;8.40;6.30;;;;;;;;;;104662;1319;22557;-34
2022/12/20 05:38:03;;;;;;;8.30;6.40;;;;;;;;;;104671;1319;22550;-34
2022/12/20 05:40:37;;;;;;;9.80;7.00;;;;;;;;;;104651;1310;22545;-34
2022/12/20 05:43:11;;;;;;;8.60;6.70;;;;;;;;;;104612;1313;22559;-35
2022/12/20 05:45:48;;;;;;;8.20;6.20;;;;;;;;;;104826;1321;22595;-34
2022/12/20 05:48:23;;;;;;;8.70;6.70;;;;;;;;;;104841;1317;22543;-34
2022/12/20 05:50:59;;;;;;;8.60;6.60;;;;;;;;;;104806;1313;23949;-34
2022/12/20 05:53:32;;;;;;;9.50;7.20;;;;;;;;;;104785;1317;22690;-34
2022/12/20 05:56:07;;;;;;;8.60;6.50;;;;;;;;;;104649;1319;22672;-35
2022/12/20 05:58:40;;;;;;;9.20;6.50;;;;;;;;;;104647;1319;22556;-34
2022/12/20 06:01:14;;;;;;;9.00;6.40;;;;;;;;;;104657;1307;22548;-34
2022/12/20 06:03:46;;;;;;;;;;;;;;;;;;104647;1317;22540;-34
2022/12/20 06:06:20;;;;;;;8.60;6.50;;;;;;;;;;104825;1321;24861;-35
2022/12/20 06:08:54;;;;;;;8.80;6.20;;;;;;;;;;104813;1304;22542;-35
2022/12/20 06:11:28;;;;;;;9.80;7.00;;;;;;;;;;104875;1325;22545;-34
2022/12/20 06:14:03;;;;;;;9.70;6.60;;;;;;;;;;104721;1316;77690;-36
2022/12/20 06:16:37;;;;;;;9.40;6.70;;;;;;;;;;104718;1321;22556;-35
2022/12/20 06:19:11;;;;;;;10.10;6.60;;;;;;;;;;104703;1319;22551;-35
2022/12/20 06:21:53;;;;;;;9.70;6.40;;;;;;;;;;104670;1318;22592;-35
2022/12/20 06:24:27;;;;;;;9.40;6.20;;;;;;;;;;104648;1316;22622;-35
2022/12/20 06:27:03;;;;;;;8.20;6.10;;;;;;;;;;104836;1309;22549;-35
2022/12/20 06:29:37;;;;;;;9.70;6.70;;;;;;;;;;104813;1313;25281;-34
2022/12/20 06:32:10;;;;;;;8.80;6.20;;;;;;;;;;104802;1300;22568;-35
2022/12/20 06:34:44;;;;;;;9.80;6.70;;;;;;;;;;104572;1318;23241;-34
2022/12/20 06:37:18;;;;;;;8.40;6.50;;;;;;;;;;104661;1311;24879;-34
2022/12/20 06:39:52;;;;;;;8.00;6.40;;;;;;;;;;104683;1307;24855;-35
2022/12/20 06:42:26;;;;;;;9.20;6.50;;;;;;;;;;104657;1313;22567;-34
2022/12/20 06:44:59;;;;;;;9.40;6.60;;;;;;;;;;104669;1315;22593;-34
2022/12/20 06:47:33;;;;;;;9.10;6.40;;;;;;;;;;104838;1316;26407;-35
2022/12/20 06:50:10;;;;;;;8.80;6.20;;;;;;;;;;104813;1313;22558;-34
2022/12/20 06:52:43;;;;;;;8.60;6.60;;;;;;;;;;104829;1317;22555;-35
2022/12/20 06:55:17;;;;;;;9.10;5.80;;;;;;;;;;104709;1309;22567;-34
2022/12/20 06:57:55;;;;;;;9.40;6.40;;;;;;;;;;104666;1310;22567;-34
2022/12/20 07:00:30;;;;;;;9.10;6.60;;;;;;;;;;104645;1309;22556;-34
2022/12/20 07:03:04;;;;;;;8.80;6.30;;;;;;;;;;104668;1309;25433;-35
2022/12/20 07:05:41;;;;;;;9.90;7.00;;;;;;;;;;104705;1316;22552;-34
2022/12/20 07:08:14;;;;;;;8.90;6.70;;;;;;;;;;104848;1314;22562;-35
2022/12/20 07:10:48;;;;;;;8.50;6.30;;;;;;;;;;104839;1321;22642;-34
2022/12/20 07:13:22;;;;;;;9.30;6.80;;;;;;;;;;104813;1316;22572;-35
2022/12/20 07:16:02;;;;;;;8.50;6.70;;;;;;;;;;104705;1311;22561;-34
2022/12/20 07:18:36;;;;;;;8.80;6.70;;;;;;;;;;104684;1310;24224;-34
2022/12/20 07:21:12;;;;;;;9.10;6.90;;;;;;;;;;104669;1319;22574;-34
2022/12/20 07:23:46;;;;;;;8.30;6.60;;;;;;;;;;104655;1317;22563;-34
2022/12/20 07:26:20;;;;;;;8.70;6.50;;;;;;;;;;104731;1316;22546;-34
2022/12/20 07:28:54;;;;;;;8.50;6.90;;;;;;;;;;104822;1316;22554;-34
2022/12/20 07:31:28;;;;;;;8.70;6.90;;;;;;;;;;104821;1300;22545;-35
2022/12/20 07:34:01;;;;;;;9.10;7.20;;;;;;;;;;104817;1322;22573;-35
2022/12/20 07:36:35;;;;;;;9.80;6.80;;;;;;;;;;104695;1301;24840;-35
2022/12/20 07:39:09;;;;;;;8.60;6.90;;;;;;;;;;104665;1317;24924;-34
2022/12/20 07:41:43;;;;;;;9.40;6.80;;;;;;;;;;104675;1321;24845;-34
2022/12/20 07:44:17;;;;;;;10.70;7.30;;;;;;;;;;104665;1309;22547;-35
2022/12/20 07:46:51;;;;;;;9.00;7.10;;;;;;;;;;104732;1317;22550;-35
2022/12/20 07:49:25;;;;;;;8.90;6.90;;;;;;;;;;104830;1299;24782;-34
2022/12/20 07:52:03;;;;;;;9.10;6.90;;;;;;;;;;104837;1314;24804;-34
2022/12/20 07:54:45;;;;;;;9.10;6.60;;;;;;;;;;104795;1322;24921;-34
2022/12/20 07:57:26;;;;;;;9.80;6.90;;;;;;;;;;104689;1316;22541;-34
2022/12/20 08:00:02;;;;;;;9.20;7.20;;;;;;;;;;104721;1319;22530;-34
2022/12/20 08:02:39;;;;;;;8.90;7.00;;;;;;;;;;104714;1321;24884;-35
2022/12/20 08:05:23;;;;;;;9.40;7.00;;;;;;;;;;104717;1313;22541;-34
2022/12/20 08:07:59;;;;;;;10.20;7.30;;;;;;;;;;104775;1317;22584;-34
2022/12/20 08:10:34;;;;;;;9.70;6.70;;;;;;;;;;104828;1312;22547;-34
2022/12/20 08:13:08;;;;;;;9.10;6.70;;;;;;;;;;104826;1310;24866;-34
2022/12/20 08:15:43;;;;;;;9.80;7.40;;;;;;;;;;104827;1321;23014;-35
2022/12/20 08:18:16;;;;;;;9.10;7.00;;;;;;;;;;104788;1318;22558;-34
2022/12/20 08:20:48;;;;;;;;;;;;;;;;;;104692;1310;22523;-33
2022/12/20 08:23:22;;;;;;;9.60;7.10;;;;;;;;;;104666;1321;22544;-34
2022/12/20 08:25:56;;;;;;;9.20;6.70;;;;;;;;;;104675;1301;22548;-34
2022/12/20 08:28:31;;;;;;;9.50;7.10;;;;;;;;;;104770;1319;26036;-34
2022/12/20 08:31:08;;;;;;;9.80;7.20;;;;;;;;;;104813;1316;22551;-35
2022/12/20 08:33:42;;;;;;;8.90;6.50;;;;;;;;;;104833;1311;22544;-34
2022/12/20 08:36:17;;;;;;;9.30;7.10;;;;;;;;;;104821;1320;22543;-35
2022/12/20 08:38:51;;;;;;;10.80;7.60;;;;;;;;;;104637;1319;23635;-34
2022/12/20 08:41:24;;;;;;;9.70;7.30;;;;;;;;;;104681;1319;22589;-34
2022/12/20 08:43:58;;;;;;;10.20;7.10;;;;;;;;;;104687;1310;26393;-35
2022/12/20 08:46:32;;;;;;;8.70;6.90;;;;;;;;;;104677;1313;22563;-34
2022/12/20 08:49:06;;;;;;;9.40;6.80;;;;;;;;;;104790;1301;22542;-34
2022/12/20 08:51:40;;;;;;;10.00;7.20;;;;;;;;;;104823;1321;22550;-35
2022/12/20 08:54:14;;;;;;;10.30;7.10;;;;;;;;;;104823;1315;22571;-34
2022/12/20 08:56:48;;;;;;;9.30;6.70;;;;;;;;;;104815;1321;22570;-34
2022/12/20 08:59:22;;;;;;;10.60;7.20;;;;;;;;;;104661;1310;22541;-34
2022/12/20 09:01:56;;;;;;;9.80;7.30;;;;;;;;;;104694;1320;22564;-34
2022/12/20 09:04:30;;;;;;;9.50;6.60;;;;;;;;;;104676;1319;23867;-35
2022/12/20 09:07:04;;;;;;;10.50;7.30;;;;;;;;;;104706;1317;22566;-35
2022/12/20 09:09:38;;;;;;;10.20;6.60;;;;;;;;;;104771;1317;22556;-35
2022/12/20 09:12:11;;;;;;;10.20;6.80;;;;;;;;;;104831;1299;22543;-35
2022/12/20 09:14:45;;;;;;;10.00;6.80;;;;;;;;;;104785;1316;22532;-35
2022/12/20 09:17:19;;;;;;;9.20;6.90;;;;;;;;;;104801;1321;22570;-34
2022/12/20 09:19:54;;;;;;;10.70;7.10;;;;;;;;;;104648;1318;24818;-34
2022/12/20 09:22:30;;;;;;;10.20;7.80;;;;;;;;;;104694;1322;22734;-34
2022/12/20 09:25:05;;;;;;;11.20;7.80;;;;;;;;;;104695;1318;22572;-34
2022/12/20 09:27:40;;;;;;;10.80;7.90;;;;;;;;;;104712;1318;22578;-33
2022/12/20 09:30:19;;;;;;;12.20;9.00;;;;;;;;;;104749;1296;22556;-33
2022/12/20 09:32:53;;;;;;;11.40;8.80;;;;;;;;;;104895;1300;22552;-33
2022/12/20 09:35:27;;;;;;;11.50;8.40;;;;;;;;;;104917;1318;22563;-32
2022/12/20 09:38:02;;;;;;;11.30;8.80;;;;;;;;;;104934;1310;22566;-33
2022/12/20 09:40:37;;;;;;;11.80;8.90;;;;;;;;;;104841;1310;22551;-33
2022/12/20 09:43:13;;;;;;;12.90;8.90;;;;;;;;;;104849;1319;24889;-34
2022/12/20 09:45:51;;;;;;;12.50;9.70;;;;;;;;;;104851;1307;24808;-37
2022/12/20 09:48:30;;;;;;;12.90;9.60;;;;;;;;;;104793;1301;22553;-37
2022/12/20 09:51:25;;;;;;;12.30;9.30;;;;;;;;;;104942;1311;22593;-34
2022/12/20 09:54:12;;;;;;;12.20;9.40;;;;;;;;;;104959;1308;22548;-33
2022/12/20 09:56:56;;;;;;;14.10;11.00;;;;;;;;;;104950;1319;22602;-33
2022/12/20 09:59:32;;;;;;;13.70;10.70;;;;;;;;;;104892;1316;23937;-34
2022/12/20 10:02:24;;;;;;;11.90;9.40;;;;;;;;;;104850;1322;22542;-32
2022/12/20 10:05:25;;;;;;;13.60;10.40;;;;;;;;;;104829;1301;24832;-34
2022/12/20 10:08:14;;;;;;;12.10;9.70;;;;;;;;;;104856;1321;22699;-35
2022/12/20 10:10:57;;;;;;;12.40;9.60;;;;;;;;;;104900;1316;22553;-35
2022/12/20 10:13:54;;;;;;;11.00;9.30;;;;;;;;;;104997;1306;22583;-34
2022/12/20 10:16:42;;;;;;;12.30;9.40;;;;;;;;;;104937;1314;22562;-36
2022/12/20 10:19:43;;;;;;;12.60;9.50;;;;;;;;;;104912;1310;26534;-35
2022/12/20 10:22:23;;;;;;;12.60;9.90;;;;;;;;;;104834;1316;25107;-35
2022/12/20 10:25:13;;;;;;;12.40;10.20;;;;;;;;;;104842;1315;22559;-33
2022/12/20 10:27:49;;;;;;;12.00;9.70;;;;;;;;;;104858;1322;22586;-35
2022/12/20 10:30:27;;;;;;;13.50;10.50;;;;;;;;;;104894;1299;22554;-35
2022/12/20 10:33:02;;;;;;;12.70;9.60;;;;;;;;;;104963;1295;22545;-36
2022/12/20 10:35:42;;;;;;;11.80;9.30;;;;;;;;;;104987;1306;22564;-36
2022/12/20 10:38:17;;;;;;;13.10;10.60;;;;;;;;;;104935;1318;24390;-35
2022/12/20 10:41:04;;;;;;;11.70;9.60;;;;;;;;;;104792;1319;22548;-34
2022/12/20 10:44:03;;;;;;;13.50;10.00;;;;;;;;;;104858;1308;22542;-35
2022/12/20 10:46:45;;;;;;;11.90;9.60;;;;;;;;;;104864;1310;22661;-35
2022/12/20 10:49:35;;;;;;;12.80;10.10;;;;;;;;;;104823;1312;23391;-35
2022/12/20 10:52:17;;;;;;;12.60;9.70;;;;;;;;;;104912;1307;25897;-35
2022/12/20 10:54:51;;;;;;;12.00;9.40;;;;;;;;;;104960;1306;25359;-35
2022/12/20 10:57:27;;;;;;;13.40;10.70;;;;;;;;;;104967;1301;25274;-35
2022/12/20 11:00:05;;;;;;;14.10;11.40;;;;;;;;;;104972;1313;22552;-35
2022/12/20 11:02:41;;;;;;;14.00;11.60;;;;;;;;;;104859;1300;22548;-36
2022/12/20 11:05:27;;;;;;;13.70;11.60;;;;;;;;;;104848;1316;22592;-35
2022/12/20 11:08:13;;;;;;;13.40;11.20;;;;;;;;;;104853;1311;24832;-35
2022/12/20 11:11:20;;;;;;;13.10;11.20;;;;;;;;;;104836;1306;22546;-35
2022/12/20 11:13:55;;;;;;;12.60;11.00;;;;;;;;;;104983;1315;24821;-35
2022/12/20 11:16:38;;;;;;;14.10;11.40;;;;;;;;;;104966;1312;22654;-34
2022/12/20 11:19:42;;;;;;;14.20;11.50;;;;;;;;;;104845;1316;22534;-34
2022/12/20 11:22:29;;;;;;;14.10;11.10;;;;;;;;;;104844;1310;25209;-34
2022/12/20 11:25:23;;;;;;;15.30;12.40;;;;;;;;;;104837;1319;24839;-34
2022/12/20 11:28:20;;;;;;;13.00;11.10;;;;;;;;;;104854;1322;22633;-35
2022/12/20 11:31:05;;;;;;;13.10;10.70;;;;;;;;;;104797;1302;22543;-35
2022/12/20 11:34:03;;;;;;;12.90;10.40;;;;;;;;;;104969;1318;22549;-34
2022/12/20 11:36:56;;;;;;;14.10;11.30;;;;;;;;;;104946;1299;22547;-34
2022/12/20 11:39:40;;;;;;;13.70;11.00;;;;;;;;;;104917;1310;25386;-34
2022/12/20 11:42:28;;;;;;;13.30;10.70;;;;;;;;;;104860;1309;22544;-34
2022/12/20 11:45:10;;;;;;;13.80;11.60;;;;;;;;;;104861;1311;22618;-34
2022/12/20 11:48:14;;;;;;;12.40;11.00;;;;;;;;;;104835;1296;22549;-33
2022/12/20 11:51:07;;;;;;;13.00;11.00;;;;;;;;;;104719;1299;23331;-32
2022/12/20 11:53:57;;;;;;;13.60;11.20;;;;;;;;;;104735;1312;25969;-34
2022/12/20 11:56:36;;;;;;;14.30;11.00;;;;;;;;;;104797;1322;24820;-35
2022/12/20 11:59:28;;;;;;;13.60;11.40;;;;;;;;;;104796;1321;22545;-34
2022/12/20 12:02:09;;;;;;;13.10;10.70;;;;;;;;;;104731;1317;24909;-36
2022/12/20 12:04:50;;;;;;;12.90;10.80;;;;;;;;;;104691;1319;22568;-34
2022/12/20 12:07:29;;;;;;;11.70;10.40;;;;;;;;;;104689;1321;22545;-34
2022/12/20 12:10:09;;;;;;;12.60;10.70;;;;;;;;;;104678;1319;22633;-34
2022/12/20 12:12:47;;;;;;;12.60;11.00;;;;;;;;;;104670;1316;22544;-34
2022/12/20 12:15:31;;;;;;;13.30;10.60;;;;;;;;;;104787;1321;22555;-34
2022/12/20 12:18:14;;;;;;;12.70;10.60;;;;;;;;;;104810;1309;22677;-34
2022/12/20 12:20:54;;;;;;;13.00;11.10;;;;;;;;;;104796;1322;22682;-34
2022/12/20 12:23:36;;;;;;;13.70;9.90;;;;;;;;;;104677;1316;22551;-33
2022/12/20 12:26:15;;;;;;;13.20;11.20;;;;;;;;;;104657;1321;22550;-33
2022/12/20 12:28:54;;;;;;;13.70;10.60;;;;;;;;;;104696;1309;22596;-34
2022/12/20 12:31:38;;;;;;;12.40;10.40;;;;;;;;;;104677;1316;22552;-34
2022/12/20 12:34:29;;;;;;;12.20;10.40;;;;;;;;;;104738;1315;22564;-34
2022/12/20 12:37:57;;;;;;;13.30;11.10;;;;;;;;;;104816;1319;22548;-34
2022/12/20 12:41:09;;;;;;;13.60;10.30;;;;;;;;;;104546;1318;25446;-34
2022/12/20 12:43:52;;;;;;;14.30;10.50;;;;;;;;;;104709;1300;22566;-34
2022/12/20 12:46:30;;;;;;;11.90;10.20;;;;;;;;;;104689;1321;22538;-33
2022/12/20 12:49:07;;;;;;;12.60;11.20;;;;;;;;;;104693;1303;22587;-34
2022/12/20 12:51:50;;;;;;;11.90;10.10;;;;;;;;;;104655;1319;22577;-34
2022/12/20 12:54:27;;;;;;;13.30;10.80;;;;;;;;;;104696;1309;22548;-34
2022/12/20 12:57:10;;;;;;;13.10;10.60;;;;;;;;;;104824;1317;22753;-35
2022/12/20 12:59:47;;;;;;;12.80;10.40;;;;;;;;;;104794;1317;22558;-34
2022/12/20 13:02:51;;;;;;;12.30;10.80;;;;;;;;;;104819;1309;22544;-34
2022/12/20 13:05:38;;;;;;;13.40;11.10;;;;;;;;;;104772;1318;26514;-34
2022/12/20 13:08:20;;;;;;;12.10;10.10;;;;;;;;;;104684;1321;22568;-33
2022/12/20 13:11:03;;;;;;;12.70;10.90;;;;;;;;;;104668;1301;24797;-33
2022/12/20 13:13:36;;;;;;;;;;;;;;;;;;104665;1317;24849;-34
2022/12/20 13:16:31;;;;;;;13.80;10.90;;;;;;;;;;104746;1309;25351;-35
2022/12/20 13:19:37;;;;;;;13.10;11.00;;;;;;;;;;104862;1300;22632;-32
2022/12/20 13:22:24;;;;;;;12.10;10.30;;;;;;;;;;104780;1321;24790;-32
2022/12/20 13:25:02;;;;;;;13.40;11.30;;;;;;;;;;104798;1300;25335;-33
2022/12/20 13:27:41;;;;;;;14.20;10.80;;;;;;;;;;104819;1320;22561;-33
2022/12/20 13:30:32;;;;;;;12.60;10.90;;;;;;;;;;104798;1314;22540;-33
2022/12/20 13:33:40;;;;;;;12.10;10.50;;;;;;;;;;104798;1320;25301;-33
2022/12/20 13:36:36;;;;;;;12.10;9.90;;;;;;;;;;104886;1317;22575;-33
2022/12/20 13:39:34;;;;;;;13.30;10.90;;;;;;;;;;104816;1310;22566;-33
2022/12/20 13:42:33;;;;;;;13.40;10.80;;;;;;;;;;104726;1320;22609;-34
2022/12/20 13:45:14;;;;;;;12.20;10.40;;;;;;;;;;104767;1319;23022;-34
2022/12/20 13:47:52;;;;;;;12.40;10.70;;;;;;;;;;104807;1307;22548;-35
2022/12/20 13:50:34;;;;;;;11.40;10.00;;;;;;;;;;104828;1314;22559;-35
2022/12/20 13:53:16;;;;;;;12.80;9.90;;;;;;;;;;104811;1322;22552;-33
2022/12/20 13:55:51;;;;;;;13.00;10.10;;;;;;;;;;104779;1308;22572;-34
2022/12/20 13:58:31;;;;;;;13.00;10.50;;;;;;;;;;104821;1321;22555;-33
2022/12/20 14:01:12;;;;;;;11.10;9.60;;;;;;;;;;104834;1315;22555;-33
2022/12/20 14:03:50;;;;;;;12.40;9.90;;;;;;;;;;104847;1322;25602;-35
2022/12/20 14:06:27;;;;;;;12.80;10.50;;;;;;;;;;104723;1315;22583;-35
2022/12/20 14:09:02;;;;;;;12.90;11.20;;;;;;;;;;104819;1313;22544;-35
2022/12/20 14:11:47;;;;;;;12.60;9.80;;;;;;;;;;104778;1321;22557;-35
2022/12/20 14:14:21;;;;;;;11.70;9.70;;;;;;;;;;104737;1309;91196;-34
2022/12/20 14:16:56;;;;;;;12.50;10.70;;;;;;;;;;104808;1316;24204;-34
2022/12/20 14:19:30;;;;;;;11.60;9.80;;;;;;;;;;104847;1317;22548;-34
2022/12/20 14:22:04;;;;;;;13.40;10.40;;;;;;;;;;104835;1316;23672;-34
2022/12/20 14:24:41;;;;;;;12.80;10.40;;;;;;;;;;104858;1319;22574;-35
2022/12/20 14:27:17;;;;;;;11.70;10.20;;;;;;;;;;104891;1317;26029;-34
2022/12/20 14:29:51;;;;;;;13.60;10.20;;;;;;;;;;104788;1309;22559;-34
2022/12/20 14:32:26;;;;;;;12.40;10.40;;;;;;;;;;104792;1321;22567;-34
2022/12/20 14:35:00;;;;;;;12.50;10.70;;;;;;;;;;104822;1316;22536;-35
2022/12/20 14:37:41;;;;;;;12.00;10.00;;;;;;;;;;104907;1301;22545;-35
2022/12/20 14:40:23;;;;;;;11.70;10.30;;;;;;;;;;104783;1322;22558;-33
2022/12/20 14:42:57;;;;;;;12.20;9.90;;;;;;;;;;104874;1306;22553;-34
2022/12/20 14:45:31;;;;;;;13.80;10.90;;;;;;;;;;104796;1316;22570;-34
2022/12/20 14:48:17;;;;;;;11.90;9.80;;;;;;;;;;104780;1309;22570;-33
2022/12/20 14:50:56;;;;;;;11.80;10.10;;;;;;;;;;104801;1322;22577;-31
2022/12/20 14:53:30;;;;;;;11.50;9.60;;;;;;;;;;104809;1316;22547;-31
2022/12/20 14:56:05;;;;;;;10.90;9.30;;;;;;;;;;104750;1321;22573;-32
2022/12/20 14:58:41;;;;;;;12.80;9.80;;;;;;;;;;104836;1309;22589;-32
2022/12/20 15:01:27;;;;;;;12.50;10.60;;;;;;;;;;104866;1316;22540;-33
2022/12/20 15:04:15;;;;;;;12.00;10.10;;;;;;;;;;104808;1315;22537;-33
2022/12/20 15:06:51;;;;;;;11.30;9.80;;;;;;;;;;104748;1296;22563;-33
2022/12/20 15:09:25;;;;;;;11.90;9.90;;;;;;;;;;104776;1309;22543;-33
2022/12/20 15:12:00;;;;;;;12.30;9.70;;;;;;;;;;104639;1321;22537;-33
2022/12/20 15:15:00;;;;;;;11.70;10.10;;;;;;;;;;104785;1322;22559;-38
2022/12/20 15:17:54;;;;;;;11.70;9.60;;;;;;;;;;104688;1316;22688;-39
2022/12/20 15:20:28;;;;;;;12.50;10.60;;;;;;;;;;104830;1312;22586;-37
2022/12/20 15:23:03;;;;;;;11.70;9.30;;;;;;;;;;104844;1316;25250;-36
2022/12/20 15:25:40;;;;;;;12.60;10.50;;;;;;;;;;104859;1319;22554;-36
2022/12/20 15:28:21;;;;;;;12.10;10.30;;;;;;;;;;104689;1299;25405;-37
2022/12/20 15:30:56;;;;;;;12.20;10.40;;;;;;;;;;104865;1307;25269;-35
2022/12/20 15:33:37;;;;;;;11.90;9.90;;;;;;;;;;104808;1317;22547;-37